sensor_id;sensor_type;location;lat;lon;timestamp;temperature;humidity
32698;DHT22;19087;51.062;3.754;2023-03-30T00:00:06;15.40;99.90
32698;DHT22;19087;51.062;3.754;2023-03-30T00:02:52;15.40;99.90
32698;DHT22;19087;51.062;3.754;2023-03-30T00:05:18;15.40;99.90
32698;DHT22;19087;51.062;3.754;2023-03-30T00:07:44;15.40;99.90
32698;DHT22;19087;51.062;3.754;2023-03-30T00:10:11;15.30;99.90
32698;DHT22;19087;51.062;3.754;2023-03-30T00:12:38;15.30;99.90
32698;DHT22;19087;51.062;3.754;2023-03-30T00:15:05;15.20;99.90
32698;DHT22;19087;51.062;3.754;2023-03-30T00:17:31;15.20;99.90
32698;DHT22;19087;51.062;3.754;2023-03-30T00:20:00;15.20;99.90
32698;DHT22;19087;51.062;3.754;2023-03-30T00:22:28;15.20;99.90
32698;DHT22;19087;51.062;3.754;2023-03-30T00:24:54;15.20;99.90
32698;DHT22;19087;51.062;3.754;2023-03-30T00:27:20;15.30;99.90
32698;DHT22;19087;51.062;3.754;2023-03-30T00:29:46;15.30;99.90
32698;DHT22;19087;51.062;3.754;2023-03-30T00:32:13;15.20;99.90
32698;DHT22;19087;51.062;3.754;2023-03-30T00:34:38;15.30;99.90
32698;DHT22;19087;51.062;3.754;2023-03-30T00:37:05;15.30;99.90
32698;DHT22;19087;51.062;3.754;2023-03-30T00:39:31;15.40;99.90
32698;DHT22;19087;51.062;3.754;2023-03-30T00:41:59;15.40;99.90
32698;DHT22;19087;51.062;3.754;2023-03-30T00:47:11;15.30;99.90
32698;DHT22;19087;51.062;3.754;2023-03-30T00:49:37;15.20;99.90
32698;DHT22;19087;51.062;3.754;2023-03-30T00:52:03;15.00;99.90
32698;DHT22;19087;51.062;3.754;2023-03-30T00:54:32;15.00;99.90
32698;DHT22;19087;51.062;3.754;2023-03-30T00:56:59;14.90;99.90
32698;DHT22;19087;51.062;3.754;2023-03-30T00:59:25;14.80;99.90
32698;DHT22;19087;51.062;3.754;2023-03-30T01:01:51;14.70;99.90
32698;DHT22;19087;51.062;3.754;2023-03-30T01:04:16;14.50;99.90
32698;DHT22;19087;51.062;3.754;2023-03-30T01:06:44;14.50;99.90
32698;DHT22;19087;51.062;3.754;2023-03-30T01:09:14;14.50;99.90
32698;DHT22;19087;51.062;3.754;2023-03-30T01:11:41;14.40;99.90
32698;DHT22;19087;51.062;3.754;2023-03-30T01:14:07;14.40;99.90
32698;DHT22;19087;51.062;3.754;2023-03-30T01:16:55;14.40;99.90
32698;DHT22;19087;51.062;3.754;2023-03-30T01:22:07;14.10;99.90
32698;DHT22;19087;51.062;3.754;2023-03-30T01:27:37;14.00;99.90
32698;DHT22;19087;51.062;3.754;2023-03-30T01:45:22;14.70;99.90
32698;DHT22;19087;51.062;3.754;2023-03-30T01:47:53;14.70;99.90
32698;DHT22;19087;51.062;3.754;2023-03-30T01:50:34;14.90;99.90
32698;DHT22;19087;51.062;3.754;2023-03-30T01:53:05;14.90;99.90
32698;DHT22;19087;51.062;3.754;2023-03-30T01:55:42;14.70;99.90
32698;DHT22;19087;51.062;3.754;2023-03-30T02:00:38;14.70;99.90
32698;DHT22;19087;51.062;3.754;2023-03-30T02:03:07;14.80;99.90
32698;DHT22;19087;51.062;3.754;2023-03-30T02:05:35;14.90;99.90
32698;DHT22;19087;51.062;3.754;2023-03-30T02:08:06;15.00;99.90
32698;DHT22;19087;51.062;3.754;2023-03-30T02:10:33;15.00;99.90
32698;DHT22;19087;51.062;3.754;2023-03-30T02:13:01;15.00;99.90
32698;DHT22;19087;51.062;3.754;2023-03-30T02:15:34;15.00;99.90
32698;DHT22;19087;51.062;3.754;2023-03-30T02:18:02;15.10;99.90
32698;DHT22;19087;51.062;3.754;2023-03-30T02:20:29;15.10;99.90
32698;DHT22;19087;51.062;3.754;2023-03-30T02:22:58;15.30;99.90
32698;DHT22;19087;51.062;3.754;2023-03-30T02:25:25;15.20;99.90
32698;DHT22;19087;51.062;3.754;2023-03-30T02:27:50;15.20;99.90
32698;DHT22;19087;51.062;3.754;2023-03-30T02:30:17;15.20;99.90
32698;DHT22;19087;51.062;3.754;2023-03-30T02:32:53;15.20;99.90
32698;DHT22;19087;51.062;3.754;2023-03-30T02:38:17;15.20;99.90
32698;DHT22;19087;51.062;3.754;2023-03-30T02:43:19;15.20;99.90
32698;DHT22;19087;51.062;3.754;2023-03-30T02:48:32;15.20;99.90
32698;DHT22;19087;51.062;3.754;2023-03-30T02:53:44;15.20;99.90
32698;DHT22;19087;51.062;3.754;2023-03-30T02:56:15;15.10;99.90
32698;DHT22;19087;51.062;3.754;2023-03-30T03:01:42;15.00;99.90
32698;DHT22;19087;51.062;3.754;2023-03-30T03:04:01;15.10;99.90
32698;DHT22;19087;51.062;3.754;2023-03-30T03:06:27;15.10;99.90
32698;DHT22;19087;51.062;3.754;2023-03-30T03:08:54;15.10;99.90
32698;DHT22;19087;51.062;3.754;2023-03-30T03:11:20;15.10;99.90
32698;DHT22;19087;51.062;3.754;2023-03-30T03:13:45;15.20;99.90
32698;DHT22;19087;51.062;3.754;2023-03-30T03:16:13;15.20;99.90
32698;DHT22;19087;51.062;3.754;2023-03-30T03:18:39;15.10;99.90
32698;DHT22;19087;51.062;3.754;2023-03-30T03:21:07;15.30;99.90
32698;DHT22;19087;51.062;3.754;2023-03-30T03:23:35;15.10;99.90
32698;DHT22;19087;51.062;3.754;2023-03-30T03:26:00;14.90;99.90
32698;DHT22;19087;51.062;3.754;2023-03-30T03:28:27;15.00;99.90
32698;DHT22;19087;51.062;3.754;2023-03-30T03:30:53;14.90;99.90
32698;DHT22;19087;51.062;3.754;2023-03-30T03:33:18;14.80;99.90
32698;DHT22;19087;51.062;3.754;2023-03-30T03:35:48;14.80;99.90
32698;DHT22;19087;51.062;3.754;2023-03-30T03:38:21;14.70;99.90
32698;DHT22;19087;51.062;3.754;2023-03-30T03:40:50;14.80;99.90
32698;DHT22;19087;51.062;3.754;2023-03-30T03:43:16;14.90;99.90
32698;DHT22;19087;51.062;3.754;2023-03-30T03:45:43;14.90;99.90
32698;DHT22;19087;51.062;3.754;2023-03-30T03:48:09;15.00;99.90
32698;DHT22;19087;51.062;3.754;2023-03-30T03:50:35;14.90;99.90
32698;DHT22;19087;51.062;3.754;2023-03-30T03:53:02;14.80;99.90
32698;DHT22;19087;51.062;3.754;2023-03-30T03:55:29;14.80;99.90
32698;DHT22;19087;51.062;3.754;2023-03-30T03:58:00;15.00;99.90
32698;DHT22;19087;51.062;3.754;2023-03-30T04:00:26;14.90;99.90
32698;DHT22;19087;51.062;3.754;2023-03-30T04:02:52;14.80;99.90
32698;DHT22;19087;51.062;3.754;2023-03-30T04:05:18;14.60;99.90
32698;DHT22;19087;51.062;3.754;2023-03-30T04:07:45;14.50;99.90
32698;DHT22;19087;51.062;3.754;2023-03-30T04:10:12;14.70;99.90
32698;DHT22;19087;51.062;3.754;2023-03-30T04:12:40;14.70;99.90
32698;DHT22;19087;51.062;3.754;2023-03-30T04:15:06;14.50;99.90
32698;DHT22;19087;51.062;3.754;2023-03-30T04:17:33;14.40;99.90
32698;DHT22;19087;51.062;3.754;2023-03-30T04:20:00;14.00;99.90
32698;DHT22;19087;51.062;3.754;2023-03-30T04:22:31;13.80;99.90
32698;DHT22;19087;51.062;3.754;2023-03-30T04:25:07;13.60;99.90
32698;DHT22;19087;51.062;3.754;2023-03-30T04:27:34;13.50;99.90
32698;DHT22;19087;51.062;3.754;2023-03-30T04:30:04;13.30;99.90
32698;DHT22;19087;51.062;3.754;2023-03-30T04:32:31;13.30;99.90
32698;DHT22;19087;51.062;3.754;2023-03-30T04:35:06;13.20;99.90
32698;DHT22;19087;51.062;3.754;2023-03-30T04:37:34;13.10;99.90
32698;DHT22;19087;51.062;3.754;2023-03-30T04:40:00;13.20;99.90
32698;DHT22;19087;51.062;3.754;2023-03-30T04:42:26;13.20;99.90
32698;DHT22;19087;51.062;3.754;2023-03-30T04:44:55;13.10;99.90
32698;DHT22;19087;51.062;3.754;2023-03-30T04:47:20;13.20;99.90
32698;DHT22;19087;51.062;3.754;2023-03-30T04:49:46;13.20;99.90
32698;DHT22;19087;51.062;3.754;2023-03-30T04:52:12;13.20;99.90
32698;DHT22;19087;51.062;3.754;2023-03-30T04:54:37;13.20;99.90
32698;DHT22;19087;51.062;3.754;2023-03-30T04:57:04;13.10;99.90
32698;DHT22;19087;51.062;3.754;2023-03-30T04:59:29;13.00;99.90
32698;DHT22;19087;51.062;3.754;2023-03-30T05:01:55;12.80;99.90
32698;DHT22;19087;51.062;3.754;2023-03-30T05:04:21;12.80;99.90
32698;DHT22;19087;51.062;3.754;2023-03-30T05:06:47;12.70;99.90
32698;DHT22;19087;51.062;3.754;2023-03-30T05:09:15;12.70;99.90
32698;DHT22;19087;51.062;3.754;2023-03-30T05:11:40;12.70;99.90
32698;DHT22;19087;51.062;3.754;2023-03-30T05:14:07;13.00;99.90
32698;DHT22;19087;51.062;3.754;2023-03-30T05:16:34;12.90;99.90
32698;DHT22;19087;51.062;3.754;2023-03-30T05:18:59;12.80;99.90
32698;DHT22;19087;51.062;3.754;2023-03-30T05:21:26;12.90;99.90
32698;DHT22;19087;51.062;3.754;2023-03-30T05:23:51;12.80;99.90
32698;DHT22;19087;51.062;3.754;2023-03-30T05:26:17;12.80;99.90
32698;DHT22;19087;51.062;3.754;2023-03-30T05:28:42;12.80;99.90
32698;DHT22;19087;51.062;3.754;2023-03-30T05:31:10;12.90;99.90
32698;DHT22;19087;51.062;3.754;2023-03-30T05:33:37;13.00;99.90
32698;DHT22;19087;51.062;3.754;2023-03-30T05:38:32;13.10;99.90
32698;DHT22;19087;51.062;3.754;2023-03-30T05:40:57;13.20;99.90
32698;DHT22;19087;51.062;3.754;2023-03-30T05:43:23;13.20;99.90
32698;DHT22;19087;51.062;3.754;2023-03-30T05:45:49;13.20;99.90
32698;DHT22;19087;51.062;3.754;2023-03-30T05:48:14;13.20;99.90
32698;DHT22;19087;51.062;3.754;2023-03-30T05:50:40;13.10;99.90
32698;DHT22;19087;51.062;3.754;2023-03-30T05:53:07;13.10;99.90
32698;DHT22;19087;51.062;3.754;2023-03-30T05:55:33;13.20;99.90
32698;DHT22;19087;51.062;3.754;2023-03-30T05:58:00;13.20;99.90
32698;DHT22;19087;51.062;3.754;2023-03-30T06:00:27;13.20;99.90
32698;DHT22;19087;51.062;3.754;2023-03-30T06:02:58;13.20;99.90
32698;DHT22;19087;51.062;3.754;2023-03-30T06:05:23;13.20;99.90
32698;DHT22;19087;51.062;3.754;2023-03-30T06:07:49;13.30;99.90
32698;DHT22;19087;51.062;3.754;2023-03-30T06:10:15;13.40;99.90
32698;DHT22;19087;51.062;3.754;2023-03-30T06:12:40;13.30;99.90
32698;DHT22;19087;51.062;3.754;2023-03-30T06:15:06;13.30;99.90
32698;DHT22;19087;51.062;3.754;2023-03-30T06:17:33;13.50;99.90
32698;DHT22;19087;51.062;3.754;2023-03-30T06:20:00;13.80;99.90
32698;DHT22;19087;51.062;3.754;2023-03-30T06:22:25;13.80;99.90
32698;DHT22;19087;51.062;3.754;2023-03-30T06:24:51;13.80;99.90
32698;DHT22;19087;51.062;3.754;2023-03-30T06:27:17;13.90;99.90
32698;DHT22;19087;51.062;3.754;2023-03-30T06:29:42;13.90;99.90
32698;DHT22;19087;51.062;3.754;2023-03-30T06:32:09;14.00;99.90
32698;DHT22;19087;51.062;3.754;2023-03-30T06:34:34;14.00;99.90
32698;DHT22;19087;51.062;3.754;2023-03-30T06:37:01;14.10;99.90
32698;DHT22;19087;51.062;3.754;2023-03-30T06:39:27;14.20;99.90
32698;DHT22;19087;51.062;3.754;2023-03-30T06:41:54;14.30;99.90
32698;DHT22;19087;51.062;3.754;2023-03-30T06:44:19;14.30;99.90
32698;DHT22;19087;51.062;3.754;2023-03-30T06:46:45;14.20;99.90
32698;DHT22;19087;51.062;3.754;2023-03-30T06:49:12;14.20;99.90
32698;DHT22;19087;51.062;3.754;2023-03-30T06:51:38;14.20;99.90
32698;DHT22;19087;51.062;3.754;2023-03-30T06:54:05;14.40;99.90
32698;DHT22;19087;51.062;3.754;2023-03-30T06:56:32;14.40;99.90
32698;DHT22;19087;51.062;3.754;2023-03-30T06:59:00;14.40;99.90
32698;DHT22;19087;51.062;3.754;2023-03-30T07:01:27;14.40;99.90
32698;DHT22;19087;51.062;3.754;2023-03-30T07:03:52;14.20;99.90
32698;DHT22;19087;51.062;3.754;2023-03-30T07:06:18;14.10;99.90
32698;DHT22;19087;51.062;3.754;2023-03-30T07:08:44;14.10;99.90
32698;DHT22;19087;51.062;3.754;2023-03-30T07:11:10;14.30;99.90
32698;DHT22;19087;51.062;3.754;2023-03-30T07:13:36;14.30;99.90
32698;DHT22;19087;51.062;3.754;2023-03-30T07:16:01;14.60;99.90
32698;DHT22;19087;51.062;3.754;2023-03-30T07:18:28;14.90;99.90
32698;DHT22;19087;51.062;3.754;2023-03-30T07:20:56;15.40;99.90
32698;DHT22;19087;51.062;3.754;2023-03-30T07:23:21;15.70;99.90
32698;DHT22;19087;51.062;3.754;2023-03-30T07:25:47;16.10;99.90
32698;DHT22;19087;51.062;3.754;2023-03-30T07:28:13;16.40;99.90
32698;DHT22;19087;51.062;3.754;2023-03-30T07:30:39;17.10;99.90
32698;DHT22;19087;51.062;3.754;2023-03-30T07:33:04;17.10;99.90
32698;DHT22;19087;51.062;3.754;2023-03-30T07:35:30;17.10;99.90
32698;DHT22;19087;51.062;3.754;2023-03-30T07:37:56;16.80;99.90
32698;DHT22;19087;51.062;3.754;2023-03-30T07:40:22;16.80;99.90
32698;DHT22;19087;51.062;3.754;2023-03-30T07:42:47;17.10;99.90
32698;DHT22;19087;51.062;3.754;2023-03-30T07:45:14;17.00;99.90
32698;DHT22;19087;51.062;3.754;2023-03-30T07:47:40;16.40;99.90
32698;DHT22;19087;51.062;3.754;2023-03-30T07:50:06;16.30;99.90
32698;DHT22;19087;51.062;3.754;2023-03-30T07:52:33;16.00;99.90
32698;DHT22;19087;51.062;3.754;2023-03-30T07:54:58;16.10;99.90
32698;DHT22;19087;51.062;3.754;2023-03-30T07:57:24;16.30;99.90
32698;DHT22;19087;51.062;3.754;2023-03-30T07:59:50;16.40;99.90
32698;DHT22;19087;51.062;3.754;2023-03-30T08:02:16;16.80;99.90
32698;DHT22;19087;51.062;3.754;2023-03-30T08:04:42;16.80;99.90
32698;DHT22;19087;51.062;3.754;2023-03-30T08:07:08;16.90;99.90
32698;DHT22;19087;51.062;3.754;2023-03-30T08:09:35;17.00;99.90
32698;DHT22;19087;51.062;3.754;2023-03-30T08:12:00;17.70;99.90
32698;DHT22;19087;51.062;3.754;2023-03-30T08:14:26;17.90;99.90
32698;DHT22;19087;51.062;3.754;2023-03-30T08:16:52;17.50;99.90
32698;DHT22;19087;51.062;3.754;2023-03-30T08:19:18;17.40;99.90
32698;DHT22;19087;51.062;3.754;2023-03-30T08:21:43;17.60;99.90
32698;DHT22;19087;51.062;3.754;2023-03-30T08:24:09;17.70;99.90
32698;DHT22;19087;51.062;3.754;2023-03-30T08:26:34;18.10;99.90
32698;DHT22;19087;51.062;3.754;2023-03-30T08:29:01;17.80;99.90
32698;DHT22;19087;51.062;3.754;2023-03-30T08:31:27;17.70;99.90
32698;DHT22;19087;51.062;3.754;2023-03-30T08:33:57;17.40;99.90
32698;DHT22;19087;51.062;3.754;2023-03-30T08:36:22;16.80;99.90
32698;DHT22;19087;51.062;3.754;2023-03-30T08:38:48;16.50;99.90
32698;DHT22;19087;51.062;3.754;2023-03-30T08:43:53;16.20;99.90
32698;DHT22;19087;51.062;3.754;2023-03-30T08:46:21;16.30;99.90
32698;DHT22;19087;51.062;3.754;2023-03-30T08:48:47;16.00;99.90
32698;DHT22;19087;51.062;3.754;2023-03-30T08:51:28;15.90;99.90
32698;DHT22;19087;51.062;3.754;2023-03-30T08:53:55;15.80;99.90
32698;DHT22;19087;51.062;3.754;2023-03-30T08:56:23;15.90;99.90
32698;DHT22;19087;51.062;3.754;2023-03-30T08:58:57;15.80;99.90
32698;DHT22;19087;51.062;3.754;2023-03-30T09:09:20;15.90;99.90
32698;DHT22;19087;51.062;3.754;2023-03-30T09:12:01;15.80;99.90
32698;DHT22;19087;51.062;3.754;2023-03-30T09:14:36;15.60;99.90
32698;DHT22;19087;51.062;3.754;2023-03-30T09:17:14;15.40;99.90
32698;DHT22;19087;51.062;3.754;2023-03-30T09:20:04;15.30;99.90
32698;DHT22;19087;51.062;3.754;2023-03-30T09:22:34;15.60;99.90
32698;DHT22;19087;51.062;3.754;2023-03-30T09:25:04;15.70;99.90
32698;DHT22;19087;51.062;3.754;2023-03-30T09:30:16;15.50;99.90
32698;DHT22;19087;51.062;3.754;2023-03-30T09:32:46;15.40;99.90
32698;DHT22;19087;51.062;3.754;2023-03-30T09:35:17;15.30;99.90
32698;DHT22;19087;51.062;3.754;2023-03-30T09:37:45;15.20;99.90
32698;DHT22;19087;51.062;3.754;2023-03-30T09:40:21;15.10;99.90
32698;DHT22;19087;51.062;3.754;2023-03-30T09:42:54;15.10;99.90
32698;DHT22;19087;51.062;3.754;2023-03-30T09:47:47;15.70;99.90
32698;DHT22;19087;51.062;3.754;2023-03-30T09:50:17;15.90;99.90
32698;DHT22;19087;51.062;3.754;2023-03-30T09:52:59;16.10;99.90
32698;DHT22;19087;51.062;3.754;2023-03-30T09:55:33;16.30;99.90
32698;DHT22;19087;51.062;3.754;2023-03-30T09:58:09;16.30;99.90
32698;DHT22;19087;51.062;3.754;2023-03-30T10:00:35;16.20;99.90
32698;DHT22;19087;51.062;3.754;2023-03-30T10:03:03;16.30;99.90
32698;DHT22;19087;51.062;3.754;2023-03-30T10:05:29;16.30;99.90
32698;DHT22;19087;51.062;3.754;2023-03-30T10:07:57;16.50;99.90
32698;DHT22;19087;51.062;3.754;2023-03-30T10:10:38;16.40;99.90
32698;DHT22;19087;51.062;3.754;2023-03-30T10:13:15;16.50;99.90
32698;DHT22;19087;51.062;3.754;2023-03-30T10:15:43;16.50;99.90
32698;DHT22;19087;51.062;3.754;2023-03-30T10:20:39;16.60;99.90
32698;DHT22;19087;51.062;3.754;2023-03-30T10:23:16;16.70;99.90
32698;DHT22;19087;51.062;3.754;2023-03-30T10:25:44;16.60;99.90
32698;DHT22;19087;51.062;3.754;2023-03-30T10:28:17;16.60;99.90
32698;DHT22;19087;51.062;3.754;2023-03-30T10:30:50;16.60;99.90
32698;DHT22;19087;51.062;3.754;2023-03-30T10:33:16;16.60;99.90
32698;DHT22;19087;51.062;3.754;2023-03-30T10:35:41;16.60;99.90
32698;DHT22;19087;51.062;3.754;2023-03-30T10:38:07;16.60;99.90
32698;DHT22;19087;51.062;3.754;2023-03-30T10:40:35;16.80;99.90
32698;DHT22;19087;51.062;3.754;2023-03-30T10:43:02;17.10;99.90
32698;DHT22;19087;51.062;3.754;2023-03-30T10:45:33;17.20;99.90
32698;DHT22;19087;51.062;3.754;2023-03-30T10:48:03;17.30;99.90
32698;DHT22;19087;51.062;3.754;2023-03-30T10:55:35;17.20;99.90
32698;DHT22;19087;51.062;3.754;2023-03-30T11:00:55;17.40;99.90
32698;DHT22;19087;51.062;3.754;2023-03-30T11:03:24;17.10;99.90
32698;DHT22;19087;51.062;3.754;2023-03-30T11:05:51;17.20;99.90
32698;DHT22;19087;51.062;3.754;2023-03-30T11:08:20;17.10;99.90
32698;DHT22;19087;51.062;3.754;2023-03-30T11:10:49;17.00;99.90
32698;DHT22;19087;51.062;3.754;2023-03-30T11:13:18;17.00;99.90
32698;DHT22;19087;51.062;3.754;2023-03-30T11:15:55;16.80;99.90
32698;DHT22;19087;51.062;3.754;2023-03-30T11:18:40;16.60;99.90
32698;DHT22;19087;51.062;3.754;2023-03-30T11:23:53;16.80;99.90
32698;DHT22;19087;51.062;3.754;2023-03-30T11:26:23;16.70;99.90
32698;DHT22;19087;51.062;3.754;2023-03-30T11:31:48;16.60;99.90
32698;DHT22;19087;51.062;3.754;2023-03-30T11:36:53;17.30;99.90
32698;DHT22;19087;51.062;3.754;2023-03-30T11:39:22;17.40;99.90
32698;DHT22;19087;51.062;3.754;2023-03-30T11:42:23;17.50;99.90
32698;DHT22;19087;51.062;3.754;2023-03-30T11:44:40;17.80;99.90
32698;DHT22;19087;51.062;3.754;2023-03-30T11:49:55;17.70;99.90
32698;DHT22;19087;51.062;3.754;2023-03-30T11:57:38;18.10;99.90
32698;DHT22;19087;51.062;3.754;2023-03-30T12:05:16;18.50;99.90
32698;DHT22;19087;51.062;3.754;2023-03-30T12:10:16;18.30;99.90
32698;DHT22;19087;51.062;3.754;2023-03-30T12:12:43;18.20;99.90
32698;DHT22;19087;51.062;3.754;2023-03-30T12:15:14;17.80;99.90
32698;DHT22;19087;51.062;3.754;2023-03-30T12:20:31;17.30;99.90
32698;DHT22;19087;51.062;3.754;2023-03-30T12:23:03;17.10;99.90
32698;DHT22;19087;51.062;3.754;2023-03-30T12:30:44;16.10;99.90
32698;DHT22;19087;51.062;3.754;2023-03-30T12:38:14;15.90;99.90
32698;DHT22;19087;51.062;3.754;2023-03-30T12:40:44;15.90;99.90
32698;DHT22;19087;51.062;3.754;2023-03-30T12:45:51;15.80;99.90
32698;DHT22;19087;51.062;3.754;2023-03-30T12:48:32;16.00;99.90
32698;DHT22;19087;51.062;3.754;2023-03-30T12:51:12;16.20;99.90
32698;DHT22;19087;51.062;3.754;2023-03-30T13:06:24;17.00;99.90
32698;DHT22;19087;51.062;3.754;2023-03-30T13:08:55;17.10;99.90
32698;DHT22;19087;51.062;3.754;2023-03-30T13:11:21;16.80;99.90
32698;DHT22;19087;51.062;3.754;2023-03-30T13:19:08;17.10;99.90
32698;DHT22;19087;51.062;3.754;2023-03-30T13:21:46;17.30;99.90
32698;DHT22;19087;51.062;3.754;2023-03-30T13:24:25;17.50;99.90
32698;DHT22;19087;51.062;3.754;2023-03-30T13:29:41;18.00;99.90
32698;DHT22;19087;51.062;3.754;2023-03-30T13:32:26;17.80;99.90
32698;DHT22;19087;51.062;3.754;2023-03-30T13:34:57;17.70;99.90
32698;DHT22;19087;51.062;3.754;2023-03-30T13:37:34;17.60;99.90
32698;DHT22;19087;51.062;3.754;2023-03-30T13:47:45;17.40;99.90
32698;DHT22;19087;51.062;3.754;2023-03-30T13:50:25;17.40;99.90
32698;DHT22;19087;51.062;3.754;2023-03-30T13:53:03;17.20;99.90
32698;DHT22;19087;51.062;3.754;2023-03-30T13:55:42;17.00;99.90
32698;DHT22;19087;51.062;3.754;2023-03-30T13:58:13;16.90;99.90
32698;DHT22;19087;51.062;3.754;2023-03-30T14:00:48;16.90;99.90
32698;DHT22;19087;51.062;3.754;2023-03-30T14:05:59;17.20;99.90
32698;DHT22;19087;51.062;3.754;2023-03-30T14:08:29;17.40;99.90
32698;DHT22;19087;51.062;3.754;2023-03-30T14:10:59;17.60;99.90
32698;DHT22;19087;51.062;3.754;2023-03-30T14:13:24;17.60;99.90
32698;DHT22;19087;51.062;3.754;2023-03-30T14:15:51;17.60;99.90
32698;DHT22;19087;51.062;3.754;2023-03-30T14:18:22;17.60;99.90
32698;DHT22;19087;51.062;3.754;2023-03-30T14:20:49;17.70;99.90
32698;DHT22;19087;51.062;3.754;2023-03-30T14:26:10;17.80;99.90
32698;DHT22;19087;51.062;3.754;2023-03-30T14:28:36;18.00;99.90
32698;DHT22;19087;51.062;3.754;2023-03-30T14:31:08;18.00;99.90
32698;DHT22;19087;51.062;3.754;2023-03-30T14:33:36;17.70;99.90
32698;DHT22;19087;51.062;3.754;2023-03-30T14:36:04;17.60;99.90
32698;DHT22;19087;51.062;3.754;2023-03-30T14:38:31;17.40;99.90
32698;DHT22;19087;51.062;3.754;2023-03-30T14:41:06;17.30;99.90
32698;DHT22;19087;51.062;3.754;2023-03-30T14:43:32;17.20;99.90
32698;DHT22;19087;51.062;3.754;2023-03-30T14:46:03;17.10;99.90
32698;DHT22;19087;51.062;3.754;2023-03-30T14:48:34;17.30;99.90
32698;DHT22;19087;51.062;3.754;2023-03-30T14:51:01;17.20;99.90
32698;DHT22;19087;51.062;3.754;2023-03-30T14:53:28;17.40;99.90
32698;DHT22;19087;51.062;3.754;2023-03-30T14:55:55;17.60;99.90
32698;DHT22;19087;51.062;3.754;2023-03-30T14:58:25;17.50;99.90
32698;DHT22;19087;51.062;3.754;2023-03-30T15:00:55;17.40;99.90
32698;DHT22;19087;51.062;3.754;2023-03-30T15:03:25;17.20;99.90
32698;DHT22;19087;51.062;3.754;2023-03-30T15:05:52;16.90;99.90
32698;DHT22;19087;51.062;3.754;2023-03-30T15:08:24;16.70;99.90
32698;DHT22;19087;51.062;3.754;2023-03-30T15:10:55;16.60;99.90
32698;DHT22;19087;51.062;3.754;2023-03-30T15:15:50;16.60;99.90
32698;DHT22;19087;51.062;3.754;2023-03-30T15:18:18;16.50;99.90
32698;DHT22;19087;51.062;3.754;2023-03-30T15:20:45;16.50;99.90
32698;DHT22;19087;51.062;3.754;2023-03-30T15:23:11;16.60;99.90
32698;DHT22;19087;51.062;3.754;2023-03-30T15:25:37;16.60;99.90
32698;DHT22;19087;51.062;3.754;2023-03-30T15:28:08;16.50;99.90
32698;DHT22;19087;51.062;3.754;2023-03-30T15:30:40;16.60;99.90
32698;DHT22;19087;51.062;3.754;2023-03-30T15:33:21;16.60;99.90
32698;DHT22;19087;51.062;3.754;2023-03-30T15:35:49;16.40;99.90
32698;DHT22;19087;51.062;3.754;2023-03-30T15:38:16;16.40;99.90
32698;DHT22;19087;51.062;3.754;2023-03-30T15:40:43;16.50;99.90
32698;DHT22;19087;51.062;3.754;2023-03-30T15:50:50;16.90;99.90
32698;DHT22;19087;51.062;3.754;2023-03-30T15:53:19;17.10;99.90
32698;DHT22;19087;51.062;3.754;2023-03-30T15:55:47;17.10;99.90
32698;DHT22;19087;51.062;3.754;2023-03-30T15:58:17;17.00;99.90
32698;DHT22;19087;51.062;3.754;2023-03-30T16:00:44;17.00;99.90
32698;DHT22;19087;51.062;3.754;2023-03-30T16:03:13;17.00;99.90
32698;DHT22;19087;51.062;3.754;2023-03-30T16:05:43;17.10;99.90
32698;DHT22;19087;51.062;3.754;2023-03-30T16:08:09;17.00;99.90
32698;DHT22;19087;51.062;3.754;2023-03-30T16:10:35;17.10;99.90
32698;DHT22;19087;51.062;3.754;2023-03-30T16:13:01;17.20;99.90
32698;DHT22;19087;51.062;3.754;2023-03-30T16:15:29;17.30;99.90
32698;DHT22;19087;51.062;3.754;2023-03-30T16:17:55;17.30;99.90
32698;DHT22;19087;51.062;3.754;2023-03-30T16:20:24;17.20;99.90
32698;DHT22;19087;51.062;3.754;2023-03-30T16:25:20;17.00;99.90
32698;DHT22;19087;51.062;3.754;2023-03-30T16:27:46;16.90;99.90
32698;DHT22;19087;51.062;3.754;2023-03-30T16:30:24;16.90;99.90
32698;DHT22;19087;51.062;3.754;2023-03-30T16:32:52;16.90;99.90
32698;DHT22;19087;51.062;3.754;2023-03-30T16:35:18;16.80;99.90
32698;DHT22;19087;51.062;3.754;2023-03-30T16:37:46;16.60;99.90
32698;DHT22;19087;51.062;3.754;2023-03-30T16:40:33;16.60;99.90
32698;DHT22;19087;51.062;3.754;2023-03-30T16:42:57;16.70;99.90
32698;DHT22;19087;51.062;3.754;2023-03-30T16:45:23;16.60;99.90
32698;DHT22;19087;51.062;3.754;2023-03-30T16:47:49;16.60;99.90
32698;DHT22;19087;51.062;3.754;2023-03-30T16:50:17;16.60;99.90
32698;DHT22;19087;51.062;3.754;2023-03-30T16:52:44;16.50;99.90
32698;DHT22;19087;51.062;3.754;2023-03-30T16:55:10;16.40;99.90
32698;DHT22;19087;51.062;3.754;2023-03-30T16:57:36;16.30;99.90
32698;DHT22;19087;51.062;3.754;2023-03-30T17:00:08;16.20;99.90
32698;DHT22;19087;51.062;3.754;2023-03-30T17:02:36;16.10;99.90
32698;DHT22;19087;51.062;3.754;2023-03-30T17:05:04;16.10;99.90
32698;DHT22;19087;51.062;3.754;2023-03-30T17:07:30;16.10;99.90
32698;DHT22;19087;51.062;3.754;2023-03-30T17:09:55;16.10;99.90
32698;DHT22;19087;51.062;3.754;2023-03-30T17:12:22;16.00;99.90
32698;DHT22;19087;51.062;3.754;2023-03-30T17:14:49;16.00;99.90
32698;DHT22;19087;51.062;3.754;2023-03-30T17:17:14;15.90;99.90
32698;DHT22;19087;51.062;3.754;2023-03-30T17:19:40;15.80;99.90
32698;DHT22;19087;51.062;3.754;2023-03-30T17:22:06;15.80;99.90
32698;DHT22;19087;51.062;3.754;2023-03-30T17:24:31;15.90;99.90
32698;DHT22;19087;51.062;3.754;2023-03-30T17:26:58;15.90;99.90
32698;DHT22;19087;51.062;3.754;2023-03-30T17:29:26;15.90;99.90
32698;DHT22;19087;51.062;3.754;2023-03-30T17:31:52;15.80;99.90
32698;DHT22;19087;51.062;3.754;2023-03-30T17:34:17;15.70;99.90
32698;DHT22;19087;51.062;3.754;2023-03-30T17:36:43;15.50;99.90
32698;DHT22;19087;51.062;3.754;2023-03-30T17:39:11;15.40;99.90
32698;DHT22;19087;51.062;3.754;2023-03-30T17:41:37;15.30;99.90
32698;DHT22;19087;51.062;3.754;2023-03-30T17:44:03;15.30;99.90
32698;DHT22;19087;51.062;3.754;2023-03-30T17:46:28;15.30;99.90
32698;DHT22;19087;51.062;3.754;2023-03-30T17:48:55;15.30;99.90
32698;DHT22;19087;51.062;3.754;2023-03-30T17:51:22;15.20;99.90
32698;DHT22;19087;51.062;3.754;2023-03-30T17:53:49;15.20;99.90
32698;DHT22;19087;51.062;3.754;2023-03-30T17:56:15;15.20;99.90
32698;DHT22;19087;51.062;3.754;2023-03-30T17:58:41;15.20;99.90
32698;DHT22;19087;51.062;3.754;2023-03-30T18:01:07;15.10;99.90
32698;DHT22;19087;51.062;3.754;2023-03-30T18:03:33;15.10;99.90
32698;DHT22;19087;51.062;3.754;2023-03-30T18:05:59;15.00;99.90
32698;DHT22;19087;51.062;3.754;2023-03-30T18:08:25;15.00;99.90
32698;DHT22;19087;51.062;3.754;2023-03-30T18:13:20;15.00;99.90